sensor_id;sensor_type;location;lat;lon;timestamp;temperature;humidity
38359;DHT22;42072;48.044;14.416;2023-04-01T00:00:53;9.30;99.90
38359;DHT22;42072;48.044;14.416;2023-04-01T00:03:21;9.30;99.90
38359;DHT22;42072;48.044;14.416;2023-04-01T00:05:50;9.30;99.90
38359;DHT22;42072;48.044;14.416;2023-04-01T00:08:17;9.30;99.90
38359;DHT22;42072;48.044;14.416;2023-04-01T00:10:45;9.40;99.90
38359;DHT22;42072;48.044;14.416;2023-04-01T00:13:12;9.40;99.90
38359;DHT22;42072;48.044;14.416;2023-04-01T00:15:40;9.40;99.90
38359;DHT22;42072;48.044;14.416;2023-04-01T00:18:08;9.40;99.90
38359;DHT22;42072;48.044;14.416;2023-04-01T00:20:35;9.50;99.90
38359;DHT22;42072;48.044;14.416;2023-04-01T00:23:03;9.50;99.90
38359;DHT22;42072;48.044;14.416;2023-04-01T00:25:30;9.60;99.90
38359;DHT22;42072;48.044;14.416;2023-04-01T00:27:58;9.70;99.90
38359;DHT22;42072;48.044;14.416;2023-04-01T00:30:26;9.80;98.00
38359;DHT22;42072;48.044;14.416;2023-04-01T00:32:53;9.90;98.80
38359;DHT22;42072;48.044;14.416;2023-04-01T00:35:20;9.90;97.50
38359;DHT22;42072;48.044;14.416;2023-04-01T00:37:48;9.90;94.30
38359;DHT22;42072;48.044;14.416;2023-04-01T00:40:30;9.90;96.00
38359;DHT22;42072;48.044;14.416;2023-04-01T00:42:58;9.80;94.20
38359;DHT22;42072;48.044;14.416;2023-04-01T00:45:35;9.80;95.60
38359;DHT22;42072;48.044;14.416;2023-04-01T00:48:09;9.80;93.10
38359;DHT22;42072;48.044;14.416;2023-04-01T00:50:41;9.70;97.00
38359;DHT22;42072;48.044;14.416;2023-04-01T00:53:09;9.90;90.10
38359;DHT22;42072;48.044;14.416;2023-04-01T00:55:40;9.90;82.30
38359;DHT22;42072;48.044;14.416;2023-04-01T00:58:13;9.90;84.40
38359;DHT22;42072;48.044;14.416;2023-04-01T01:00:42;10.00;70.90
38359;DHT22;42072;48.044;14.416;2023-04-01T01:03:09;10.00;84.50
38359;DHT22;42072;48.044;14.416;2023-04-01T01:11:20;9.80;99.90
38359;DHT22;42072;48.044;14.416;2023-04-01T01:16:44;9.70;99.90
38359;DHT22;42072;48.044;14.416;2023-04-01T01:27:19;9.40;99.90
38359;DHT22;42072;48.044;14.416;2023-04-01T01:35:34;9.40;99.90
38359;DHT22;42072;48.044;14.416;2023-04-01T01:38:07;9.40;99.90
38359;DHT22;42072;48.044;14.416;2023-04-01T01:40:37;9.40;99.90
38359;DHT22;42072;48.044;14.416;2023-04-01T01:43:09;9.40;99.90
38359;DHT22;42072;48.044;14.416;2023-04-01T01:45:41;9.40;99.90
38359;DHT22;42072;48.044;14.416;2023-04-01T01:48:11;9.50;99.90
38359;DHT22;42072;48.044;14.416;2023-04-01T01:50:40;9.50;99.90
38359;DHT22;42072;48.044;14.416;2023-04-01T01:53:11;9.60;99.90
38359;DHT22;42072;48.044;14.416;2023-04-01T01:55:44;9.50;99.90
38359;DHT22;42072;48.044;14.416;2023-04-01T01:58:33;9.60;99.90
38359;DHT22;42072;48.044;14.416;2023-04-01T02:01:11;9.60;99.90
38359;DHT22;42072;48.044;14.416;2023-04-01T02:03:40;9.50;99.90
38359;DHT22;42072;48.044;14.416;2023-04-01T02:06:12;9.50;99.90
38359;DHT22;42072;48.044;14.416;2023-04-01T02:08:54;9.50;99.90
38359;DHT22;42072;48.044;14.416;2023-04-01T02:11:40;9.40;99.90
38359;DHT22;42072;48.044;14.416;2023-04-01T02:14:14;9.40;99.90
38359;DHT22;42072;48.044;14.416;2023-04-01T02:17:01;9.30;99.90
38359;DHT22;42072;48.044;14.416;2023-04-01T02:19:41;9.30;99.90
38359;DHT22;42072;48.044;14.416;2023-04-01T02:22:14;9.30;99.90
38359;DHT22;42072;48.044;14.416;2023-04-01T02:24:43;9.20;99.90
38359;DHT22;42072;48.044;14.416;2023-04-01T02:27:13;9.20;99.90
38359;DHT22;42072;48.044;14.416;2023-04-01T02:29:40;9.10;99.90
38359;DHT22;42072;48.044;14.416;2023-04-01T02:32:09;9.10;99.90
38359;DHT22;42072;48.044;14.416;2023-04-01T02:34:37;9.10;99.90
38359;DHT22;42072;48.044;14.416;2023-04-01T02:37:04;9.00;99.90
38359;DHT22;42072;48.044;14.416;2023-04-01T02:39:32;9.10;99.90
38359;DHT22;42072;48.044;14.416;2023-04-01T02:41:59;9.00;99.90
38359;DHT22;42072;48.044;14.416;2023-04-01T02:44:26;9.00;99.90
38359;DHT22;42072;48.044;14.416;2023-04-01T02:46:53;9.00;99.90
38359;DHT22;42072;48.044;14.416;2023-04-01T02:49:21;9.00;99.90
38359;DHT22;42072;48.044;14.416;2023-04-01T02:51:48;9.00;99.90
38359;DHT22;42072;48.044;14.416;2023-04-01T02:54:15;9.10;99.90
38359;DHT22;42072;48.044;14.416;2023-04-01T02:56:42;9.10;99.90
38359;DHT22;42072;48.044;14.416;2023-04-01T02:59:10;9.10;99.90
38359;DHT22;42072;48.044;14.416;2023-04-01T03:01:37;9.10;99.90
38359;DHT22;42072;48.044;14.416;2023-04-01T03:04:04;9.10;99.90
38359;DHT22;42072;48.044;14.416;2023-04-01T03:06:32;9.20;99.90
38359;DHT22;42072;48.044;14.416;2023-04-01T03:08:59;9.10;99.90
38359;DHT22;42072;48.044;14.416;2023-04-01T03:11:26;9.10;99.90
38359;DHT22;42072;48.044;14.416;2023-04-01T03:13:53;8.90;99.90
38359;DHT22;42072;48.044;14.416;2023-04-01T03:16:21;8.90;99.90
38359;DHT22;42072;48.044;14.416;2023-04-01T03:18:48;8.90;99.90
38359;DHT22;42072;48.044;14.416;2023-04-01T03:21:20;8.90;99.90
38359;DHT22;42072;48.044;14.416;2023-04-01T03:23:47;8.80;99.90
38359;DHT22;42072;48.044;14.416;2023-04-01T03:26:15;8.70;99.90
38359;DHT22;42072;48.044;14.416;2023-04-01T03:28:42;8.70;99.90
38359;DHT22;42072;48.044;14.416;2023-04-01T03:31:10;8.70;99.90
38359;DHT22;42072;48.044;14.416;2023-04-01T03:33:38;8.70;99.90
38359;DHT22;42072;48.044;14.416;2023-04-01T03:36:06;8.80;99.90
38359;DHT22;42072;48.044;14.416;2023-04-01T03:38:34;8.80;99.90
38359;DHT22;42072;48.044;14.416;2023-04-01T03:41:02;8.90;99.90
38359;DHT22;42072;48.044;14.416;2023-04-01T03:43:29;9.00;99.90
38359;DHT22;42072;48.044;14.416;2023-04-01T03:45:57;9.10;99.90
38359;DHT22;42072;48.044;14.416;2023-04-01T03:48:26;9.10;99.90
38359;DHT22;42072;48.044;14.416;2023-04-01T03:50:53;9.10;99.90
38359;DHT22;42072;48.044;14.416;2023-04-01T03:53:20;9.10;99.90
38359;DHT22;42072;48.044;14.416;2023-04-01T03:55:47;9.20;99.90
38359;DHT22;42072;48.044;14.416;2023-04-01T03:58:15;9.10;99.90
38359;DHT22;42072;48.044;14.416;2023-04-01T04:00:42;9.10;99.90
38359;DHT22;42072;48.044;14.416;2023-04-01T04:03:09;9.00;99.90
38359;DHT22;42072;48.044;14.416;2023-04-01T04:05:37;8.90;99.90
38359;DHT22;42072;48.044;14.416;2023-04-01T04:08:05;8.80;99.90
38359;DHT22;42072;48.044;14.416;2023-04-01T04:10:32;8.70;99.90
38359;DHT22;42072;48.044;14.416;2023-04-01T04:12:59;8.60;99.90
38359;DHT22;42072;48.044;14.416;2023-04-01T04:15:26;8.50;99.90
38359;DHT22;42072;48.044;14.416;2023-04-01T04:17:53;8.40;99.90
38359;DHT22;42072;48.044;14.416;2023-04-01T04:20:21;8.30;99.90
38359;DHT22;42072;48.044;14.416;2023-04-01T04:22:48;8.30;99.90
38359;DHT22;42072;48.044;14.416;2023-04-01T04:25:15;8.30;99.90
38359;DHT22;42072;48.044;14.416;2023-04-01T04:27:42;8.20;99.90
38359;DHT22;42072;48.044;14.416;2023-04-01T04:30:09;8.20;99.90
38359;DHT22;42072;48.044;14.416;2023-04-01T04:32:37;8.20;99.90
38359;DHT22;42072;48.044;14.416;2023-04-01T04:35:04;8.20;99.90
38359;DHT22;42072;48.044;14.416;2023-04-01T04:37:33;8.20;99.90
38359;DHT22;42072;48.044;14.416;2023-04-01T04:40:00;8.10;99.90
38359;DHT22;42072;48.044;14.416;2023-04-01T04:42:27;8.10;99.90
38359;DHT22;42072;48.044;14.416;2023-04-01T04:44:54;8.10;99.90
38359;DHT22;42072;48.044;14.416;2023-04-01T04:47:22;8.20;99.90
38359;DHT22;42072;48.044;14.416;2023-04-01T04:49:49;8.30;99.90
38359;DHT22;42072;48.044;14.416;2023-04-01T04:52:16;8.30;99.90
38359;DHT22;42072;48.044;14.416;2023-04-01T04:54:43;8.30;99.90
38359;DHT22;42072;48.044;14.416;2023-04-01T04:57:11;8.30;99.90
38359;DHT22;42072;48.044;14.416;2023-04-01T04:59:38;8.30;99.90
38359;DHT22;42072;48.044;14.416;2023-04-01T05:02:05;8.40;99.90
38359;DHT22;42072;48.044;14.416;2023-04-01T05:04:36;8.50;99.90
38359;DHT22;42072;48.044;14.416;2023-04-01T05:07:03;8.50;99.90
38359;DHT22;42072;48.044;14.416;2023-04-01T05:09:31;8.50;99.90
38359;DHT22;42072;48.044;14.416;2023-04-01T05:11:58;8.60;99.90
38359;DHT22;42072;48.044;14.416;2023-04-01T05:14:27;8.60;99.90
38359;DHT22;42072;48.044;14.416;2023-04-01T05:16:54;8.60;99.90
38359;DHT22;42072;48.044;14.416;2023-04-01T05:19:21;8.60;99.90
38359;DHT22;42072;48.044;14.416;2023-04-01T05:21:48;8.60;99.90
38359;DHT22;42072;48.044;14.416;2023-04-01T05:24:16;8.70;99.90
38359;DHT22;42072;48.044;14.416;2023-04-01T05:26:43;8.70;99.90
38359;DHT22;42072;48.044;14.416;2023-04-01T05:29:10;8.70;99.90
38359;DHT22;42072;48.044;14.416;2023-04-01T05:31:37;8.80;99.90
38359;DHT22;42072;48.044;14.416;2023-04-01T05:34:04;8.90;99.90
38359;DHT22;42072;48.044;14.416;2023-04-01T05:36:31;9.00;99.90
38359;DHT22;42072;48.044;14.416;2023-04-01T05:38:59;9.00;99.90
38359;DHT22;42072;48.044;14.416;2023-04-01T05:41:26;9.20;99.90
38359;DHT22;42072;48.044;14.416;2023-04-01T05:43:53;9.20;99.90
38359;DHT22;42072;48.044;14.416;2023-04-01T05:46:20;9.40;99.90
38359;DHT22;42072;48.044;14.416;2023-04-01T05:48:48;9.50;99.90
38359;DHT22;42072;48.044;14.416;2023-04-01T05:51:15;9.60;99.90
38359;DHT22;42072;48.044;14.416;2023-04-01T05:53:43;9.70;99.90
38359;DHT22;42072;48.044;14.416;2023-04-01T05:56:10;9.70;99.90
38359;DHT22;42072;48.044;14.416;2023-04-01T05:58:38;9.80;99.90
38359;DHT22;42072;48.044;14.416;2023-04-01T06:01:10;9.80;99.90
38359;DHT22;42072;48.044;14.416;2023-04-01T06:03:42;9.90;99.90
38359;DHT22;42072;48.044;14.416;2023-04-01T06:06:25;10.00;99.90
38359;DHT22;42072;48.044;14.416;2023-04-01T06:08:53;10.00;99.90
38359;DHT22;42072;48.044;14.416;2023-04-01T06:17:50;10.40;99.90
38359;DHT22;42072;48.044;14.416;2023-04-01T06:23:33;10.60;99.90
38359;DHT22;42072;48.044;14.416;2023-04-01T06:28:42;10.90;99.90
38359;DHT22;42072;48.044;14.416;2023-04-01T06:40:27;11.20;99.90
38359;DHT22;42072;48.044;14.416;2023-04-01T06:46:02;11.40;96.20
38359;DHT22;42072;48.044;14.416;2023-04-01T06:57:34;11.50;90.40
38359;DHT22;42072;48.044;14.416;2023-04-01T07:00:04;11.70;83.00
38359;DHT22;42072;48.044;14.416;2023-04-01T07:02:59;11.80;65.00
38359;DHT22;42072;48.044;14.416;2023-04-01T07:05:33;11.80;67.10
38359;DHT22;42072;48.044;14.416;2023-04-01T07:08:04;12.00;58.40
38359;DHT22;42072;48.044;14.416;2023-04-01T07:18:41;12.20;32.10
38359;DHT22;42072;48.044;14.416;2023-04-01T07:21:36;12.20;35.80
38359;DHT22;42072;48.044;14.416;2023-04-01T07:24:10;12.10;30.00
38359;DHT22;42072;48.044;14.416;2023-04-01T07:26:39;12.10;35.40
38359;DHT22;42072;48.044;14.416;2023-04-01T07:29:12;12.10;36.40
38359;DHT22;42072;48.044;14.416;2023-04-01T07:35:01;12.10;28.20
38359;DHT22;42072;48.044;14.416;2023-04-01T07:40:24;12.40;17.10
38359;DHT22;42072;48.044;14.416;2023-04-01T07:48:51;12.40;3.40
38359;DHT22;42072;48.044;14.416;2023-04-01T07:54:13;12.70;7.10
38359;DHT22;42072;48.044;14.416;2023-04-01T07:59:55;13.40;1.00
38359;DHT22;42072;48.044;14.416;2023-04-01T08:07:45;13.70;1.00
38359;DHT22;42072;48.044;14.416;2023-04-01T08:10:40;13.80;1.00
38359;DHT22;42072;48.044;14.416;2023-04-01T08:13:25;13.60;1.00
38359;DHT22;42072;48.044;14.416;2023-04-01T08:21:58;13.40;1.00
38359;DHT22;42072;48.044;14.416;2023-04-01T08:24:39;13.20;1.00
38359;DHT22;42072;48.044;14.416;2023-04-01T08:27:37;13.40;1.00
38359;DHT22;42072;48.044;14.416;2023-04-01T08:30:25;13.50;1.00
38359;DHT22;42072;48.044;14.416;2023-04-01T08:33:05;13.50;1.00
38359;DHT22;42072;48.044;14.416;2023-04-01T08:35:46;13.70;1.00
38359;DHT22;42072;48.044;14.416;2023-04-01T08:38:23;13.80;1.00
38359;DHT22;42072;48.044;14.416;2023-04-01T08:57:50;14.10;1.00
38359;DHT22;42072;48.044;14.416;2023-04-01T09:00:31;14.00;1.00
38359;DHT22;42072;48.044;14.416;2023-04-01T09:03:20;13.90;1.00
38359;DHT22;42072;48.044;14.416;2023-04-01T09:20:30;14.50;1.00
38359;DHT22;42072;48.044;14.416;2023-04-01T09:26:29;14.70;1.00
38359;DHT22;42072;48.044;14.416;2023-04-01T09:37:52;14.70;1.00
38359;DHT22;42072;48.044;14.416;2023-04-01T09:49:13;14.10;1.00
38359;DHT22;42072;48.044;14.416;2023-04-01T10:01:05;14.60;1.00
38359;DHT22;42072;48.044;14.416;2023-04-01T10:07:18;14.70;1.00
38359;DHT22;42072;48.044;14.416;2023-04-01T10:15:44;15.50;1.00
38359;DHT22;42072;48.044;14.416;2023-04-01T10:40:35;16.60;1.00
38359;DHT22;42072;48.044;14.416;2023-04-01T10:46:34;16.60;1.00
38359;DHT22;42072;48.044;14.416;2023-04-01T10:57:42;15.10;1.00
38359;DHT22;42072;48.044;14.416;2023-04-01T11:07:16;15.20;1.00
38359;DHT22;42072;48.044;14.416;2023-04-01T11:26:58;15.40;1.00
38359;DHT22;42072;48.044;14.416;2023-04-01T11:32:33;15.50;1.00
38359;DHT22;42072;48.044;14.416;2023-04-01T11:42:25;16.10;1.00
38359;DHT22;42072;48.044;14.416;2023-04-01T11:48:27;15.80;1.00
38359;DHT22;42072;48.044;14.416;2023-04-01T12:15:36;15.70;1.00
38359;DHT22;42072;48.044;14.416;2023-04-01T12:28:48;16.00;1.00
38359;DHT22;42072;48.044;14.416;2023-04-01T12:36:55;17.00;1.00
38359;DHT22;42072;48.044;14.416;2023-04-01T12:48:05;16.30;1.00
38359;DHT22;42072;48.044;14.416;2023-04-01T13:03:41;10.70;99.90
38359;DHT22;42072;48.044;14.416;2023-04-01T13:20:14;14.10;60.40
38359;DHT22;42072;48.044;14.416;2023-04-01T13:28:39;14.30;29.70
38359;DHT22;42072;48.044;14.416;2023-04-01T13:31:24;14.60;33.20
38359;DHT22;42072;48.044;14.416;2023-04-01T13:36:41;14.90;3.10
38359;DHT22;42072;48.044;14.416;2023-04-01T13:42:58;15.50;1.00
38359;DHT22;42072;48.044;14.416;2023-04-01T13:50:54;16.00;1.00
38359;DHT22;42072;48.044;14.416;2023-04-01T13:56:37;15.50;1.00
38359;DHT22;42072;48.044;14.416;2023-04-01T14:01:56;14.70;1.00
38359;DHT22;42072;48.044;14.416;2023-04-01T14:07:17;14.10;1.00
38359;DHT22;42072;48.044;14.416;2023-04-01T14:13:00;14.10;1.00
38359;DHT22;42072;48.044;14.416;2023-04-01T14:16:04;14.10;1.10
38359;DHT22;42072;48.044;14.416;2023-04-01T14:21:23;14.00;7.10
38359;DHT22;42072;48.044;14.416;2023-04-01T14:24:29;14.00;15.10
38359;DHT22;42072;48.044;14.416;2023-04-01T14:44:04;13.30;1.00
38359;DHT22;42072;48.044;14.416;2023-04-01T14:49:56;14.20;1.00
38359;DHT22;42072;48.044;14.416;2023-04-01T14:52:35;14.80;1.00
38359;DHT22;42072;48.044;14.416;2023-04-01T14:55:31;14.90;1.00
38359;DHT22;42072;48.044;14.416;2023-04-01T14:58:12;14.80;1.00
38359;DHT22;42072;48.044;14.416;2023-04-01T15:14:24;11.70;99.90
38359;DHT22;42072;48.044;14.416;2023-04-01T15:27:54;12.00;94.30
38359;DHT22;42072;48.044;14.416;2023-04-01T15:33:32;11.70;99.90
38359;DHT22;42072;48.044;14.416;2023-04-01T15:36:19;11.60;99.90
38359;DHT22;42072;48.044;14.416;2023-04-01T15:39:17;11.50;99.90
38359;DHT22;42072;48.044;14.416;2023-04-01T15:58:38;12.30;40.60
38359;DHT22;42072;48.044;14.416;2023-04-01T16:09:53;11.80;19.50
38359;DHT22;42072;48.044;14.416;2023-04-01T16:12:42;11.80;15.30
38359;DHT22;42072;48.044;14.416;2023-04-01T16:27:04;11.60;10.50
38359;DHT22;42072;48.044;14.416;2023-04-01T16:29:48;11.60;9.60
38359;DHT22;42072;48.044;14.416;2023-04-01T16:32:49;11.50;9.10
38359;DHT22;42072;48.044;14.416;2023-04-01T16:35:44;11.40;7.20
38359;DHT22;42072;48.044;14.416;2023-04-01T16:41:24;11.30;16.70
38359;DHT22;42072;48.044;14.416;2023-04-01T16:43:56;11.20;20.40
38359;DHT22;42072;48.044;14.416;2023-04-01T16:52:04;10.90;41.20
38359;DHT22;42072;48.044;14.416;2023-04-01T16:55:12;10.90;41.60
38359;DHT22;42072;48.044;14.416;2023-04-01T16:57:55;10.80;45.00
38359;DHT22;42072;48.044;14.416;2023-04-01T17:21:38;10.60;75.60
38359;DHT22;42072;48.044;14.416;2023-04-01T17:35:36;10.30;90.70
38359;DHT22;42072;48.044;14.416;2023-04-01T17:49:39;10.10;95.20
38359;DHT22;42072;48.044;14.416;2023-04-01T17:52:29;10.00;97.50
38359;DHT22;42072;48.044;14.416;2023-04-01T18:09:09;9.70;99.90
38359;DHT22;42072;48.044;14.416;2023-04-01T18:14:57;9.60;99.90
38359;DHT22;42072;48.044;14.416;2023-04-01T18:20:28;9.60;99.90
38359;DHT22;42072;48.044;14.416;2023-04-01T18:23:58;9.60;99.90
38359;DHT22;42072;48.044;14.416;2023-04-01T18:26:18;9.50;99.90
38359;DHT22;42072;48.044;14.416;2023-04-01T18:29:17;9.50;99.90
38359;DHT22;42072;48.044;14.416;2023-04-01T18:32:23;9.40;99.90
38359;DHT22;42072;48.044;14.416;2023-04-01T18:38:23;9.40;99.90
38359;DHT22;42072;48.044;14.416;2023-04-01T18:40:49;9.40;99.90
38359;DHT22;42072;48.044;14.416;2023-04-01T18:43:33;9.30;99.90
38359;DHT22;42072;48.044;14.416;2023-04-01T18:50:02;9.30;99.90
38359;DHT22;42072;48.044;14.416;2023-04-01T18:52:20;9.30;99.90
38359;DHT22;42072;48.044;14.416;2023-04-01T18:55:22;9.40;99.90
38359;DHT22;42072;48.044;14.416;2023-04-01T18:57:53;9.40;99.90
38359;DHT22;42072;48.044;14.416;2023-04-01T19:00:36;9.50;99.90
38359;DHT22;42072;48.044;14.416;2023-04-01T19:05:44;9.50;99.90
38359;DHT22;42072;48.044;14.416;2023-04-01T19:08:35;9.50;99.90
38359;DHT22;42072;48.044;14.416;2023-04-01T19:16:49;9.50;99.90
38359;DHT22;42072;48.044;14.416;2023-04-01T19:28:01;9.40;99.90
38359;DHT22;42072;48.044;14.416;2023-04-01T19:30:47;9.30;99.90
38359;DHT22;42072;48.044;14.416;2023-04-01T19:36:22;9.20;99.90
38359;DHT22;42072;48.044;14.416;2023-04-01T19:39:32;9.20;99.90
38359;DHT22;42072;48.044;14.416;2023-04-01T19:45:45;9.10;99.90
38359;DHT22;42072;48.044;14.416;2023-04-01T19:50:46;9.10;99.90
38359;DHT22;42072;48.044;14.416;2023-04-01T19:53:38;9.10;99.90
38359;DHT22;42072;48.044;14.416;2023-04-01T19:59:28;9.10;99.90
38359;DHT22;42072;48.044;14.416;2023-04-01T20:04:49;9.10;99.90
38359;DHT22;42072;48.044;14.416;2023-04-01T20:18:46;9.30;99.90
38359;DHT22;42072;48.044;14.416;2023-04-01T20:24:19;9.30;99.90
38359;DHT22;42072;48.044;14.416;2023-04-01T20:27:08;9.30;99.90
38359;DHT22;42072;48.044;14.416;2023-04-01T20:36:16;9.40;99.90
38359;DHT22;42072;48.044;14.416;2023-04-01T20:39:14;9.50;99.90
38359;DHT22;42072;48.044;14.416;2023-04-01T20:45:10;9.60;99.90
38359;DHT22;42072;48.044;14.416;2023-04-01T20:53:36;9.50;99.90
38359;DHT22;42072;48.044;14.416;2023-04-01T20:56:17;9.50;99.90
38359;DHT22;42072;48.044;14.416;2023-04-01T20:59:02;9.40;99.90
38359;DHT22;42072;48.044;14.416;2023-04-01T21:01:57;9.30;99.90
38359;DHT22;42072;48.044;14.416;2023-04-01T21:12:30;9.20;99.90
38359;DHT22;42072;48.044;14.416;2023-04-01T21:23:39;9.10;99.90
38359;DHT22;42072;48.044;14.416;2023-04-01T21:28:50;9.00;99.90
38359;DHT22;42072;48.044;14.416;2023-04-01T21:37:22;8.90;99.90
38359;DHT22;42072;48.044;14.416;2023-04-01T21:43:09;8.90;99.90
38359;DHT22;42072;48.044;14.416;2023-04-01T21:51:25;8.90;99.90
38359;DHT22;42072;48.044;14.416;2023-04-01T22:02:35;9.00;99.90
38359;DHT22;42072;48.044;14.416;2023-04-01T22:05:22;9.00;99.90
38359;DHT22;42072;48.044;14.416;2023-04-01T22:10:57;9.20;99.90
38359;DHT22;42072;48.044;14.416;2023-04-01T22:13:26;9.20;99.90
38359;DHT22;42072;48.044;14.416;2023-04-01T22:16:23;9.20;99.90
38359;DHT22;42072;48.044;14.416;2023-04-01T22:22:01;9.20;99.90
38359;DHT22;42072;48.044;14.416;2023-04-01T22:30:23;9.40;99.90
38359;DHT22;42072;48.044;14.416;2023-04-01T22:35:59;9.40;99.90
38359;DHT22;42072;48.044;14.416;2023-04-01T22:41:16;9.40;99.90
38359;DHT22;42072;48.044;14.416;2023-04-01T22:43:54;9.40;99.90
38359;DHT22;42072;48.044;14.416;2023-04-01T22:46:53;9.40;99.90
38359;DHT22;42072;48.044;14.416;2023-04-01T22:49:41;9.40;99.90
38359;DHT22;42072;48.044;14.416;2023-04-01T22:52:14;9.40;99.90
38359;DHT22;42072;48.044;14.416;2023-04-01T22:54:50;9.40;99.90
38359;DHT22;42072;48.044;14.416;2023-04-01T22:57:42;9.40;99.90
38359;DHT22;42072;48.044;14.416;2023-04-01T23:00:25;9.30;99.90
38359;DHT22;42072;48.044;14.416;2023-04-01T23:03:14;9.30;99.90
38359;DHT22;42072;48.044;14.416;2023-04-01T23:05:54;9.20;99.90
38359;DHT22;42072;48.044;14.416;2023-04-01T23:08:39;9.10;99.90
38359;DHT22;42072;48.044;14.416;2023-04-01T23:11:14;9.00;99.90
38359;DHT22;42072;48.044;14.416;2023-04-01T23:13:54;8.80;99.90
38359;DHT22;42072;48.044;14.416;2023-04-01T23:16:30;8.70;99.90
38359;DHT22;42072;48.044;14.416;2023-04-01T23:19:11;8.60;99.90
38359;DHT22;42072;48.044;14.416;2023-04-01T23:21:51;8.50;99.90
38359;DHT22;42072;48.044;14.416;2023-04-01T23:24:35;8.40;99.90
38359;DHT22;42072;48.044;14.416;2023-04-01T23:27:11;8.40;1.00
38359;DHT22;42072;48.044;14.416;2023-04-01T23:29:39;8.30;1.00
38359;DHT22;42072;48.044;14.416;2023-04-01T23:32:18;8.20;1.00
38359;DHT22;42072;48.044;14.416;2023-04-01T23:34:49;8.20;1.00
38359;DHT22;42072;48.044;14.416;2023-04-01T23:37:17;8.10;1.00
38359;DHT22;42072;48.044;14.416;2023-04-01T23:39:48;8.10;1.00
38359;DHT22;42072;48.044;14.416;2023-04-01T23:42:38;8.10;1.00
38359;DHT22;42072;48.044;14.416;2023-04-01T23:45:13;8.10;1.00
38359;DHT22;42072;48.044;14.416;2023-04-01T23:47:46;8.10;1.00
38359;DHT22;42072;48.044;14.416;2023-04-01T23:50:20;8.10;1.00
38359;DHT22;42072;48.044;14.416;2023-04-01T23:53:00;8.10;1.00
38359;DHT22;42072;48.044;14.416;2023-04-01T23:55:32;8.00;1.00
